sensor_id;sensor_type;location;lat;lon;timestamp;P1;durP1;ratioP1;P2;durP2;ratioP2
33644;SDS011;19986;48.190;16.366;2023-02-24T00:01:25;64.78;;;59.28;;
33644;SDS011;19986;48.190;16.366;2023-02-24T00:03:56;64.25;;;58.90;;
33644;SDS011;19986;48.190;16.366;2023-02-24T00:06:24;68.30;;;62.33;;
33644;SDS011;19986;48.190;16.366;2023-02-24T00:09:22;67.07;;;61.35;;
33644;SDS011;19986;48.190;16.366;2023-02-24T00:12:01;66.25;;;60.42;;
33644;SDS011;19986;48.190;16.366;2023-02-24T00:14:30;67.00;;;61.47;;
33644;SDS011;19986;48.190;16.366;2023-02-24T00:16:58;66.40;;;60.67;;
33644;SDS011;19986;48.190;16.366;2023-02-24T00:19:25;64.97;;;59.28;;
33644;SDS011;19986;48.190;16.366;2023-02-24T00:21:53;65.00;;;59.50;;
33644;SDS011;19986;48.190;16.366;2023-02-24T00:24:23;63.72;;;58.40;;
33644;SDS011;19986;48.190;16.366;2023-02-24T00:26:51;67.15;;;61.38;;
33644;SDS011;19986;48.190;16.366;2023-02-24T00:29:20;65.30;;;60.00;;
33644;SDS011;19986;48.190;16.366;2023-02-24T00:32:06;65.25;;;59.78;;
33644;SDS011;19986;48.190;16.366;2023-02-24T00:34:36;68.65;;;62.80;;
33644;SDS011;19986;48.190;16.366;2023-02-24T00:37:03;67.47;;;61.78;;
33644;SDS011;19986;48.190;16.366;2023-02-24T00:39:33;68.90;;;63.17;;
33644;SDS011;19986;48.190;16.366;2023-02-24T00:42:00;65.93;;;60.40;;
33644;SDS011;19986;48.190;16.366;2023-02-24T00:44:35;69.47;;;63.65;;
33644;SDS011;19986;48.190;16.366;2023-02-24T00:47:06;66.30;;;60.65;;
33644;SDS011;19986;48.190;16.366;2023-02-24T00:49:34;69.65;;;63.72;;
33644;SDS011;19986;48.190;16.366;2023-02-24T00:52:07;67.07;;;61.42;;
33644;SDS011;19986;48.190;16.366;2023-02-24T00:54:38;67.57;;;61.95;;
33644;SDS011;19986;48.190;16.366;2023-02-24T00:57:04;69.70;;;63.83;;
33644;SDS011;19986;48.190;16.366;2023-02-24T00:59:32;69.25;;;63.55;;
33644;SDS011;19986;48.190;16.366;2023-02-24T01:01:59;67.30;;;61.83;;
33644;SDS011;19986;48.190;16.366;2023-02-24T01:04:27;67.22;;;61.53;;
33644;SDS011;19986;48.190;16.366;2023-02-24T01:06:54;69.45;;;63.38;;
33644;SDS011;19986;48.190;16.366;2023-02-24T01:09:27;67.28;;;61.70;;
33644;SDS011;19986;48.190;16.366;2023-02-24T01:11:54;69.40;;;63.42;;
33644;SDS011;19986;48.190;16.366;2023-02-24T01:14:40;67.18;;;61.47;;
33644;SDS011;19986;48.190;16.366;2023-02-24T01:17:08;67.28;;;61.67;;
33644;SDS011;19986;48.190;16.366;2023-02-24T01:19:35;68.30;;;62.47;;
33644;SDS011;19986;48.190;16.366;2023-02-24T01:22:05;67.35;;;61.75;;
33644;SDS011;19986;48.190;16.366;2023-02-24T01:24:35;67.90;;;62.00;;
33644;SDS011;19986;48.190;16.366;2023-02-24T01:27:03;68.07;;;62.05;;
33644;SDS011;19986;48.190;16.366;2023-02-24T01:29:30;70.15;;;64.15;;
33644;SDS011;19986;48.190;16.366;2023-02-24T01:31:56;66.82;;;61.28;;
33644;SDS011;19986;48.190;16.366;2023-02-24T01:34:23;69.50;;;63.75;;
33644;SDS011;19986;48.190;16.366;2023-02-24T01:36:50;67.13;;;61.55;;
33644;SDS011;19986;48.190;16.366;2023-02-24T01:39:15;69.18;;;62.92;;
33644;SDS011;19986;48.190;16.366;2023-02-24T01:41:43;69.18;;;63.15;;
33644;SDS011;19986;48.190;16.366;2023-02-24T01:46:42;70.15;;;64.15;;
33644;SDS011;19986;48.190;16.366;2023-02-24T01:52:01;71.30;;;65.40;;
33644;SDS011;19986;48.190;16.366;2023-02-24T01:54:33;68.63;;;62.83;;
33644;SDS011;19986;48.190;16.366;2023-02-24T01:57:03;70.43;;;64.18;;
33644;SDS011;19986;48.190;16.366;2023-02-24T01:59:30;70.68;;;64.63;;
33644;SDS011;19986;48.190;16.366;2023-02-24T02:02:01;69.18;;;63.33;;
33644;SDS011;19986;48.190;16.366;2023-02-24T02:04:53;66.82;;;61.17;;
33644;SDS011;19986;48.190;16.366;2023-02-24T02:07:22;69.68;;;63.50;;
33644;SDS011;19986;48.190;16.366;2023-02-24T02:09:51;66.80;;;61.00;;
33644;SDS011;19986;48.190;16.366;2023-02-24T02:12:20;69.10;;;63.15;;
33644;SDS011;19986;48.190;16.366;2023-02-24T02:14:48;70.28;;;64.38;;
33644;SDS011;19986;48.190;16.366;2023-02-24T02:28:57;67.22;;;61.72;;
33644;SDS011;19986;48.190;16.366;2023-02-24T02:39:46;70.97;;;64.50;;
33644;SDS011;19986;48.190;16.366;2023-02-24T02:53:34;73.72;;;66.68;;
33644;SDS011;19986;48.190;16.366;2023-02-24T02:58:33;72.38;;;65.85;;
33644;SDS011;19986;48.190;16.366;2023-02-24T03:01:01;77.15;;;69.97;;
33644;SDS011;19986;48.190;16.366;2023-02-24T03:06:16;71.22;;;64.75;;
33644;SDS011;19986;48.190;16.366;2023-02-24T03:08:50;72.47;;;65.82;;
33644;SDS011;19986;48.190;16.366;2023-02-24T03:11:17;77.82;;;70.13;;
33644;SDS011;19986;48.190;16.366;2023-02-24T03:13:45;76.45;;;69.60;;
33644;SDS011;19986;48.190;16.366;2023-02-24T03:16:14;76.00;;;68.88;;
33644;SDS011;19986;48.190;16.366;2023-02-24T03:18:43;76.72;;;69.70;;
33644;SDS011;19986;48.190;16.366;2023-02-24T03:21:25;71.15;;;64.68;;
33644;SDS011;19986;48.190;16.366;2023-02-24T03:24:01;73.53;;;67.03;;
33644;SDS011;19986;48.190;16.366;2023-02-24T03:29:21;72.88;;;66.35;;
33644;SDS011;19986;48.190;16.366;2023-02-24T03:32:04;73.30;;;66.60;;
33644;SDS011;19986;48.190;16.366;2023-02-24T03:34:55;74.75;;;67.80;;
33644;SDS011;19986;48.190;16.366;2023-02-24T03:37:26;71.13;;;64.80;;
33644;SDS011;19986;48.190;16.366;2023-02-24T03:39:56;78.70;;;71.70;;
33644;SDS011;19986;48.190;16.366;2023-02-24T03:42:24;81.78;;;69.75;;
33644;SDS011;19986;48.190;16.366;2023-02-24T03:44:55;78.00;;;69.85;;
33644;SDS011;19986;48.190;16.366;2023-02-24T03:47:23;77.47;;;70.03;;
33644;SDS011;19986;48.190;16.366;2023-02-24T03:49:50;76.30;;;69.45;;
33644;SDS011;19986;48.190;16.366;2023-02-24T04:00:30;75.65;;;68.55;;
33644;SDS011;19986;48.190;16.366;2023-02-24T04:08:24;83.72;;;76.13;;
33644;SDS011;19986;48.190;16.366;2023-02-24T04:19:08;83.22;;;75.45;;
33644;SDS011;19986;48.190;16.366;2023-02-24T04:21:39;81.43;;;74.28;;
33644;SDS011;19986;48.190;16.366;2023-02-24T04:24:07;77.10;;;70.18;;
33644;SDS011;19986;48.190;16.366;2023-02-24T04:26:43;80.50;;;73.20;;
33644;SDS011;19986;48.190;16.366;2023-02-24T04:29:12;81.40;;;74.20;;
33644;SDS011;19986;48.190;16.366;2023-02-24T04:31:56;81.30;;;74.25;;
33644;SDS011;19986;48.190;16.366;2023-02-24T04:34:26;77.38;;;70.10;;
33644;SDS011;19986;48.190;16.366;2023-02-24T04:36:58;79.18;;;71.80;;
33644;SDS011;19986;48.190;16.366;2023-02-24T04:39:26;75.78;;;68.95;;
33644;SDS011;19986;48.190;16.366;2023-02-24T04:41:53;79.70;;;72.85;;
33644;SDS011;19986;48.190;16.366;2023-02-24T04:44:22;75.03;;;68.22;;
33644;SDS011;19986;48.190;16.366;2023-02-24T04:46:48;74.20;;;67.40;;
33644;SDS011;19986;48.190;16.366;2023-02-24T04:49:15;78.45;;;71.13;;
33644;SDS011;19986;48.190;16.366;2023-02-24T04:51:42;77.10;;;70.32;;
33644;SDS011;19986;48.190;16.366;2023-02-24T04:54:09;76.28;;;69.70;;
33644;SDS011;19986;48.190;16.366;2023-02-24T04:56:38;74.60;;;67.90;;
33644;SDS011;19986;48.190;16.366;2023-02-24T04:59:05;78.18;;;71.40;;
33644;SDS011;19986;48.190;16.366;2023-02-24T05:01:35;76.88;;;69.95;;
33644;SDS011;19986;48.190;16.366;2023-02-24T05:04:05;78.90;;;72.03;;
33644;SDS011;19986;48.190;16.366;2023-02-24T05:06:32;74.95;;;68.32;;
33644;SDS011;19986;48.190;16.366;2023-02-24T05:08:59;77.55;;;70.45;;
33644;SDS011;19986;48.190;16.366;2023-02-24T05:11:41;79.53;;;72.43;;
33644;SDS011;19986;48.190;16.366;2023-02-24T05:14:11;79.20;;;71.78;;
33644;SDS011;19986;48.190;16.366;2023-02-24T05:16:41;76.47;;;69.82;;
33644;SDS011;19986;48.190;16.366;2023-02-24T05:19:12;78.38;;;70.68;;
33644;SDS011;19986;48.190;16.366;2023-02-24T05:22:02;77.72;;;70.72;;
33644;SDS011;19986;48.190;16.366;2023-02-24T05:24:31;81.20;;;73.57;;
33644;SDS011;19986;48.190;16.366;2023-02-24T05:26:58;79.05;;;72.07;;
33644;SDS011;19986;48.190;16.366;2023-02-24T05:29:24;83.63;;;76.38;;
33644;SDS011;19986;48.190;16.366;2023-02-24T05:31:55;78.30;;;71.20;;
33644;SDS011;19986;48.190;16.366;2023-02-24T05:34:27;77.28;;;70.05;;
33644;SDS011;19986;48.190;16.366;2023-02-24T05:36:55;75.18;;;67.63;;
33644;SDS011;19986;48.190;16.366;2023-02-24T05:39:23;77.15;;;69.88;;
33644;SDS011;19986;48.190;16.366;2023-02-24T05:41:51;75.28;;;68.28;;
33644;SDS011;19986;48.190;16.366;2023-02-24T05:44:19;73.10;;;66.40;;
33644;SDS011;19986;48.190;16.366;2023-02-24T05:46:47;74.13;;;67.63;;
33644;SDS011;19986;48.190;16.366;2023-02-24T05:49:15;75.97;;;69.32;;
33644;SDS011;19986;48.190;16.366;2023-02-24T05:51:50;75.65;;;68.95;;
33644;SDS011;19986;48.190;16.366;2023-02-24T05:54:21;75.85;;;69.03;;
33644;SDS011;19986;48.190;16.366;2023-02-24T05:56:50;73.95;;;67.13;;
33644;SDS011;19986;48.190;16.366;2023-02-24T05:59:16;74.63;;;67.80;;
33644;SDS011;19986;48.190;16.366;2023-02-24T06:01:45;72.32;;;65.97;;
33644;SDS011;19986;48.190;16.366;2023-02-24T06:04:14;75.93;;;68.60;;
33644;SDS011;19986;48.190;16.366;2023-02-24T06:06:46;75.30;;;68.93;;
33644;SDS011;19986;48.190;16.366;2023-02-24T06:09:18;75.90;;;69.18;;
33644;SDS011;19986;48.190;16.366;2023-02-24T06:11:47;72.97;;;66.20;;
33644;SDS011;19986;48.190;16.366;2023-02-24T06:14:14;76.57;;;69.50;;
33644;SDS011;19986;48.190;16.366;2023-02-24T06:16:41;79.50;;;71.90;;
33644;SDS011;19986;48.190;16.366;2023-02-24T06:19:08;77.13;;;69.88;;
33644;SDS011;19986;48.190;16.366;2023-02-24T06:21:37;75.55;;;68.38;;
33644;SDS011;19986;48.190;16.366;2023-02-24T06:24:12;77.85;;;70.68;;
33644;SDS011;19986;48.190;16.366;2023-02-24T06:26:42;79.22;;;71.82;;
33644;SDS011;19986;48.190;16.366;2023-02-24T06:29:10;79.43;;;71.53;;
33644;SDS011;19986;48.190;16.366;2023-02-24T06:31:41;78.60;;;70.97;;
33644;SDS011;19986;48.190;16.366;2023-02-24T06:34:11;79.22;;;71.93;;
33644;SDS011;19986;48.190;16.366;2023-02-24T06:36:42;76.28;;;69.07;;
33644;SDS011;19986;48.190;16.366;2023-02-24T06:39:08;78.25;;;70.43;;
33644;SDS011;19986;48.190;16.366;2023-02-24T06:41:37;79.00;;;71.85;;
33644;SDS011;19986;48.190;16.366;2023-02-24T06:44:03;77.28;;;70.50;;
33644;SDS011;19986;48.190;16.366;2023-02-24T06:46:29;74.35;;;67.68;;
33644;SDS011;19986;48.190;16.366;2023-02-24T06:48:55;77.25;;;69.80;;
33644;SDS011;19986;48.190;16.366;2023-02-24T06:51:22;75.50;;;68.10;;
33644;SDS011;19986;48.190;16.366;2023-02-24T06:53:49;75.30;;;68.45;;
33644;SDS011;19986;48.190;16.366;2023-02-24T06:56:16;77.10;;;70.30;;
33644;SDS011;19986;48.190;16.366;2023-02-24T06:58:45;76.22;;;68.38;;
33644;SDS011;19986;48.190;16.366;2023-02-24T07:01:13;74.90;;;68.40;;
33644;SDS011;19986;48.190;16.366;2023-02-24T07:03:40;76.32;;;69.15;;
33644;SDS011;19986;48.190;16.366;2023-02-24T07:06:12;72.75;;;66.20;;
33644;SDS011;19986;48.190;16.366;2023-02-24T07:09:04;79.95;;;72.65;;
33644;SDS011;19986;48.190;16.366;2023-02-24T07:11:35;72.30;;;66.00;;
33644;SDS011;19986;48.190;16.366;2023-02-24T07:14:02;79.15;;;71.97;;
33644;SDS011;19986;48.190;16.366;2023-02-24T07:16:32;75.60;;;68.35;;
33644;SDS011;19986;48.190;16.366;2023-02-24T07:19:00;76.60;;;69.07;;
33644;SDS011;19986;48.190;16.366;2023-02-24T07:21:28;71.32;;;64.53;;
33644;SDS011;19986;48.190;16.366;2023-02-24T07:24:04;78.60;;;71.97;;
33644;SDS011;19986;48.190;16.366;2023-02-24T07:26:31;73.30;;;66.72;;
33644;SDS011;19986;48.190;16.366;2023-02-24T07:28:58;76.38;;;69.55;;
33644;SDS011;19986;48.190;16.366;2023-02-24T07:31:29;75.30;;;68.65;;
33644;SDS011;19986;48.190;16.366;2023-02-24T07:34:01;74.65;;;67.63;;
33644;SDS011;19986;48.190;16.366;2023-02-24T07:36:30;72.80;;;65.47;;
33644;SDS011;19986;48.190;16.366;2023-02-24T07:39:13;76.35;;;69.32;;
33644;SDS011;19986;48.190;16.366;2023-02-24T07:41:41;74.28;;;67.90;;
33644;SDS011;19986;48.190;16.366;2023-02-24T07:44:11;74.07;;;67.75;;
33644;SDS011;19986;48.190;16.366;2023-02-24T07:46:38;74.38;;;68.32;;
33644;SDS011;19986;48.190;16.366;2023-02-24T07:49:05;69.93;;;63.60;;
33644;SDS011;19986;48.190;16.366;2023-02-24T07:51:34;71.30;;;64.93;;
33644;SDS011;19986;48.190;16.366;2023-02-24T07:54:00;75.50;;;68.55;;
33644;SDS011;19986;48.190;16.366;2023-02-24T07:56:28;70.80;;;64.03;;
33644;SDS011;19986;48.190;16.366;2023-02-24T07:59:02;67.60;;;61.47;;
33644;SDS011;19986;48.190;16.366;2023-02-24T08:01:35;69.93;;;64.00;;
33644;SDS011;19986;48.190;16.366;2023-02-24T08:04:06;70.45;;;64.38;;
33644;SDS011;19986;48.190;16.366;2023-02-24T08:06:38;73.28;;;66.50;;
33644;SDS011;19986;48.190;16.366;2023-02-24T08:09:12;71.60;;;65.30;;
33644;SDS011;19986;48.190;16.366;2023-02-24T08:11:44;67.90;;;61.60;;
33644;SDS011;19986;48.190;16.366;2023-02-24T08:14:19;67.80;;;61.92;;
33644;SDS011;19986;48.190;16.366;2023-02-24T08:16:51;68.75;;;62.72;;
33644;SDS011;19986;48.190;16.366;2023-02-24T08:19:24;72.30;;;65.90;;
33644;SDS011;19986;48.190;16.366;2023-02-24T08:21:57;67.40;;;61.67;;
33644;SDS011;19986;48.190;16.366;2023-02-24T08:27:26;66.55;;;60.67;;
33644;SDS011;19986;48.190;16.366;2023-02-24T08:29:56;68.70;;;62.38;;
33644;SDS011;19986;48.190;16.366;2023-02-24T08:32:29;66.65;;;60.83;;
33644;SDS011;19986;48.190;16.366;2023-02-24T08:35:04;69.30;;;63.42;;
33644;SDS011;19986;48.190;16.366;2023-02-24T08:37:39;65.85;;;60.25;;
33644;SDS011;19986;48.190;16.366;2023-02-24T08:40:17;68.15;;;62.35;;
33644;SDS011;19986;48.190;16.366;2023-02-24T08:45:47;64.00;;;58.13;;
33644;SDS011;19986;48.190;16.366;2023-02-24T08:48:16;66.50;;;61.05;;
33644;SDS011;19986;48.190;16.366;2023-02-24T08:50:51;62.53;;;57.13;;
33644;SDS011;19986;48.190;16.366;2023-02-24T08:53:21;64.50;;;58.60;;
33644;SDS011;19986;48.190;16.366;2023-02-24T08:55:53;67.28;;;61.63;;
33644;SDS011;19986;48.190;16.366;2023-02-24T08:58:20;66.03;;;60.42;;
33644;SDS011;19986;48.190;16.366;2023-02-24T09:00:52;67.07;;;60.78;;
33644;SDS011;19986;48.190;16.366;2023-02-24T09:03:22;64.65;;;59.15;;
33644;SDS011;19986;48.190;16.366;2023-02-24T09:05:58;62.38;;;57.38;;
33644;SDS011;19986;48.190;16.366;2023-02-24T09:08:29;61.70;;;56.85;;
33644;SDS011;19986;48.190;16.366;2023-02-24T09:11:01;64.65;;;59.20;;
33644;SDS011;19986;48.190;16.366;2023-02-24T09:13:41;64.07;;;58.90;;
33644;SDS011;19986;48.190;16.366;2023-02-24T09:16:26;59.25;;;54.38;;
33644;SDS011;19986;48.190;16.366;2023-02-24T09:18:53;61.15;;;56.13;;
33644;SDS011;19986;48.190;16.366;2023-02-24T09:21:37;61.83;;;56.65;;
33644;SDS011;19986;48.190;16.366;2023-02-24T09:24:12;62.13;;;56.38;;
33644;SDS011;19986;48.190;16.366;2023-02-24T09:26:38;61.38;;;55.90;;
33644;SDS011;19986;48.190;16.366;2023-02-24T09:29:13;62.53;;;57.40;;
33644;SDS011;19986;48.190;16.366;2023-02-24T09:32:04;60.90;;;55.92;;
33644;SDS011;19986;48.190;16.366;2023-02-24T09:34:31;62.20;;;57.05;;
33644;SDS011;19986;48.190;16.366;2023-02-24T09:36:59;59.92;;;55.33;;
33644;SDS011;19986;48.190;16.366;2023-02-24T09:39:32;60.25;;;55.45;;
33644;SDS011;19986;48.190;16.366;2023-02-24T09:42:22;58.10;;;53.55;;
33644;SDS011;19986;48.190;16.366;2023-02-24T09:45:26;61.85;;;56.97;;
33644;SDS011;19986;48.190;16.366;2023-02-24T09:48:04;58.90;;;53.67;;
33644;SDS011;19986;48.190;16.366;2023-02-24T09:50:46;56.70;;;52.47;;
33644;SDS011;19986;48.190;16.366;2023-02-24T09:53:25;56.47;;;51.92;;
33644;SDS011;19986;48.190;16.366;2023-02-24T09:56:26;54.90;;;50.58;;
33644;SDS011;19986;48.190;16.366;2023-02-24T10:02:08;56.28;;;51.53;;
33644;SDS011;19986;48.190;16.366;2023-02-24T10:05:42;53.97;;;49.35;;
33644;SDS011;19986;48.190;16.366;2023-02-24T10:08:12;53.25;;;48.67;;
33644;SDS011;19986;48.190;16.366;2023-02-24T10:10:50;55.63;;;50.28;;
33644;SDS011;19986;48.190;16.366;2023-02-24T10:13:33;54.72;;;50.47;;
33644;SDS011;19986;48.190;16.366;2023-02-24T10:16:02;52.72;;;48.72;;
33644;SDS011;19986;48.190;16.366;2023-02-24T10:18:49;52.63;;;48.63;;
33644;SDS011;19986;48.190;16.366;2023-02-24T10:21:38;54.78;;;50.67;;
33644;SDS011;19986;48.190;16.366;2023-02-24T10:24:29;55.35;;;51.15;;
33644;SDS011;19986;48.190;16.366;2023-02-24T10:27:17;53.17;;;49.28;;
33644;SDS011;19986;48.190;16.366;2023-02-24T10:32:47;51.33;;;47.38;;
33644;SDS011;19986;48.190;16.366;2023-02-24T10:35:27;51.58;;;47.67;;
33644;SDS011;19986;48.190;16.366;2023-02-24T10:37:58;53.40;;;49.45;;
33644;SDS011;19986;48.190;16.366;2023-02-24T10:40:33;47.13;;;43.42;;
33644;SDS011;19986;48.190;16.366;2023-02-24T10:43:16;46.55;;;43.15;;
33644;SDS011;19986;48.190;16.366;2023-02-24T10:45:44;49.60;;;45.53;;
33644;SDS011;19986;48.190;16.366;2023-02-24T10:48:18;50.15;;;46.33;;
33644;SDS011;19986;48.190;16.366;2023-02-24T10:50:52;48.08;;;44.17;;
33644;SDS011;19986;48.190;16.366;2023-02-24T10:53:20;47.55;;;44.30;;
33644;SDS011;19986;48.190;16.366;2023-02-24T10:56:11;50.65;;;46.85;;
33644;SDS011;19986;48.190;16.366;2023-02-24T10:58:41;47.28;;;44.05;;
33644;SDS011;19986;48.190;16.366;2023-02-24T11:01:35;48.10;;;44.45;;
33644;SDS011;19986;48.190;16.366;2023-02-24T11:04:28;48.97;;;45.30;;
33644;SDS011;19986;48.190;16.366;2023-02-24T11:07:10;47.92;;;44.67;;
33644;SDS011;19986;48.190;16.366;2023-02-24T11:10:08;48.30;;;45.05;;
33644;SDS011;19986;48.190;16.366;2023-02-24T11:12:44;47.30;;;43.97;;
33644;SDS011;19986;48.190;16.366;2023-02-24T11:15:35;45.55;;;42.58;;
33644;SDS011;19986;48.190;16.366;2023-02-24T11:18:26;48.38;;;45.03;;
33644;SDS011;19986;48.190;16.366;2023-02-24T11:25:52;45.40;;;42.13;;
33644;SDS011;19986;48.190;16.366;2023-02-24T11:34:09;45.45;;;42.25;;
33644;SDS011;19986;48.190;16.366;2023-02-24T11:42:43;44.67;;;41.80;;
33644;SDS011;19986;48.190;16.366;2023-02-24T11:48:17;45.15;;;41.70;;
33644;SDS011;19986;48.190;16.366;2023-02-24T11:51:17;44.28;;;41.38;;
33644;SDS011;19986;48.190;16.366;2023-02-24T11:56:52;46.58;;;43.20;;
33644;SDS011;19986;48.190;16.366;2023-02-24T12:04:29;43.08;;;40.47;;
33644;SDS011;19986;48.190;16.366;2023-02-24T12:12:59;40.55;;;38.15;;
33644;SDS011;19986;48.190;16.366;2023-02-24T12:15:49;40.00;;;37.40;;
33644;SDS011;19986;48.190;16.366;2023-02-24T12:18:34;41.30;;;38.55;;
33644;SDS011;19986;48.190;16.366;2023-02-24T12:23:47;40.13;;;37.53;;
33644;SDS011;19986;48.190;16.366;2023-02-24T12:26:21;39.65;;;37.40;;
33644;SDS011;19986;48.190;16.366;2023-02-24T12:37:53;38.95;;;36.38;;
33644;SDS011;19986;48.190;16.366;2023-02-24T12:43:45;40.85;;;38.25;;
33644;SDS011;19986;48.190;16.366;2023-02-24T12:46:32;43.13;;;40.03;;
33644;SDS011;19986;48.190;16.366;2023-02-24T12:58:12;43.80;;;40.97;;
33644;SDS011;19986;48.190;16.366;2023-02-24T13:09:43;39.90;;;37.38;;
33644;SDS011;19986;48.190;16.366;2023-02-24T13:12:32;40.25;;;37.65;;
33644;SDS011;19986;48.190;16.366;2023-02-24T13:15:06;43.38;;;40.40;;
33644;SDS011;19986;48.190;16.366;2023-02-24T13:17:47;44.78;;;41.25;;
33644;SDS011;19986;48.190;16.366;2023-02-24T13:20:26;42.20;;;39.50;;
33644;SDS011;19986;48.190;16.366;2023-02-24T13:23:17;42.85;;;39.35;;
33644;SDS011;19986;48.190;16.366;2023-02-24T13:25:49;44.70;;;41.75;;
33644;SDS011;19986;48.190;16.366;2023-02-24T13:30:56;40.20;;;37.38;;
33644;SDS011;19986;48.190;16.366;2023-02-24T13:36:09;37.83;;;35.42;;
33644;SDS011;19986;48.190;16.366;2023-02-24T13:38:47;39.22;;;36.63;;
33644;SDS011;19986;48.190;16.366;2023-02-24T13:44:00;38.78;;;36.47;;
33644;SDS011;19986;48.190;16.366;2023-02-24T13:55:19;37.42;;;35.20;;
33644;SDS011;19986;48.190;16.366;2023-02-24T13:58:18;38.60;;;36.10;;
33644;SDS011;19986;48.190;16.366;2023-02-24T14:00:58;38.60;;;36.22;;
33644;SDS011;19986;48.190;16.366;2023-02-24T14:03:30;39.42;;;36.50;;
33644;SDS011;19986;48.190;16.366;2023-02-24T14:05:58;38.30;;;35.65;;
33644;SDS011;19986;48.190;16.366;2023-02-24T14:10:56;37.28;;;35.15;;
33644;SDS011;19986;48.190;16.366;2023-02-24T14:13:25;39.38;;;36.50;;
33644;SDS011;19986;48.190;16.366;2023-02-24T14:15:54;38.63;;;35.92;;
33644;SDS011;19986;48.190;16.366;2023-02-24T14:18:23;37.78;;;35.22;;
33644;SDS011;19986;48.190;16.366;2023-02-24T14:20:51;39.38;;;36.83;;
33644;SDS011;19986;48.190;16.366;2023-02-24T14:23:21;39.10;;;36.65;;
33644;SDS011;19986;48.190;16.366;2023-02-24T14:25:56;42.75;;;39.78;;
33644;SDS011;19986;48.190;16.366;2023-02-24T14:28:28;36.78;;;34.38;;
33644;SDS011;19986;48.190;16.366;2023-02-24T14:31:07;41.83;;;38.92;;
33644;SDS011;19986;48.190;16.366;2023-02-24T14:33:36;39.47;;;36.92;;
33644;SDS011;19986;48.190;16.366;2023-02-24T14:36:04;40.83;;;38.47;;
33644;SDS011;19986;48.190;16.366;2023-02-24T14:41:46;41.08;;;37.75;;
33644;SDS011;19986;48.190;16.366;2023-02-24T14:46:52;38.80;;;36.30;;
33644;SDS011;19986;48.190;16.366;2023-02-24T14:49:27;38.38;;;35.85;;
33644;SDS011;19986;48.190;16.366;2023-02-24T14:57:16;46.08;;;42.83;;
33644;SDS011;19986;48.190;16.366;2023-02-24T14:59:50;42.75;;;39.47;;
33644;SDS011;19986;48.190;16.366;2023-02-24T15:02:21;40.25;;;37.72;;
33644;SDS011;19986;48.190;16.366;2023-02-24T15:04:53;41.10;;;38.47;;
33644;SDS011;19986;48.190;16.366;2023-02-24T15:07:25;41.78;;;38.17;;
33644;SDS011;19986;48.190;16.366;2023-02-24T15:09:54;43.58;;;39.72;;
33644;SDS011;19986;48.190;16.366;2023-02-24T15:12:22;42.05;;;38.70;;
33644;SDS011;19986;48.190;16.366;2023-02-24T15:15:27;41.60;;;38.70;;
33644;SDS011;19986;48.190;16.366;2023-02-24T15:18:00;42.22;;;39.53;;
33644;SDS011;19986;48.190;16.366;2023-02-24T15:20:34;40.33;;;37.83;;
33644;SDS011;19986;48.190;16.366;2023-02-24T15:23:01;41.67;;;39.30;;
33644;SDS011;19986;48.190;16.366;2023-02-24T15:25:29;42.67;;;39.75;;
33644;SDS011;19986;48.190;16.366;2023-02-24T15:28:06;42.72;;;40.13;;
33644;SDS011;19986;48.190;16.366;2023-02-24T15:33:43;43.13;;;40.35;;
33644;SDS011;19986;48.190;16.366;2023-02-24T15:36:17;43.53;;;40.83;;
33644;SDS011;19986;48.190;16.366;2023-02-24T15:38:53;44.40;;;41.45;;
33644;SDS011;19986;48.190;16.366;2023-02-24T15:41:22;43.25;;;40.30;;
33644;SDS011;19986;48.190;16.366;2023-02-24T15:43:49;44.20;;;41.17;;
33644;SDS011;19986;48.190;16.366;2023-02-24T15:48:49;42.10;;;38.97;;
33644;SDS011;19986;48.190;16.366;2023-02-24T15:51:38;44.00;;;40.92;;
33644;SDS011;19986;48.190;16.366;2023-02-24T15:54:23;44.42;;;41.05;;
33644;SDS011;19986;48.190;16.366;2023-02-24T15:56:57;42.78;;;40.08;;
33644;SDS011;19986;48.190;16.366;2023-02-24T15:59:24;42.80;;;39.40;;
33644;SDS011;19986;48.190;16.366;2023-02-24T16:01:51;40.35;;;37.63;;
33644;SDS011;19986;48.190;16.366;2023-02-24T16:04:17;41.92;;;38.97;;
33644;SDS011;19986;48.190;16.366;2023-02-24T16:06:44;42.85;;;39.63;;
33644;SDS011;19986;48.190;16.366;2023-02-24T16:09:21;42.40;;;39.67;;
33644;SDS011;19986;48.190;16.366;2023-02-24T16:12:01;39.83;;;37.33;;
33644;SDS011;19986;48.190;16.366;2023-02-24T16:14:29;41.55;;;38.65;;
33644;SDS011;19986;48.190;16.366;2023-02-24T16:16:57;44.03;;;40.03;;
33644;SDS011;19986;48.190;16.366;2023-02-24T16:19:23;43.88;;;41.08;;
33644;SDS011;19986;48.190;16.366;2023-02-24T16:21:49;45.13;;;42.10;;
33644;SDS011;19986;48.190;16.366;2023-02-24T16:24:16;41.63;;;38.45;;
33644;SDS011;19986;48.190;16.366;2023-02-24T16:26:42;44.20;;;41.47;;
33644;SDS011;19986;48.190;16.366;2023-02-24T16:29:11;42.70;;;40.10;;
33644;SDS011;19986;48.190;16.366;2023-02-24T16:31:39;42.22;;;39.15;;
33644;SDS011;19986;48.190;16.366;2023-02-24T16:34:06;41.63;;;39.05;;
33644;SDS011;19986;48.190;16.366;2023-02-24T16:36:40;42.08;;;39.03;;
33644;SDS011;19986;48.190;16.366;2023-02-24T16:39:09;43.78;;;40.78;;
33644;SDS011;19986;48.190;16.366;2023-02-24T16:41:38;41.92;;;38.95;;
33644;SDS011;19986;48.190;16.366;2023-02-24T16:44:05;41.40;;;38.75;;
33644;SDS011;19986;48.190;16.366;2023-02-24T16:46:33;43.67;;;40.90;;
33644;SDS011;19986;48.190;16.366;2023-02-24T16:49:02;44.95;;;41.90;;
33644;SDS011;19986;48.190;16.366;2023-02-24T16:51:32;42.83;;;39.83;;
33644;SDS011;19986;48.190;16.366;2023-02-24T16:53:59;42.83;;;39.92;;
33644;SDS011;19986;48.190;16.366;2023-02-24T16:56:26;44.22;;;40.70;;
33644;SDS011;19986;48.190;16.366;2023-02-24T16:58:52;42.45;;;39.65;;
33644;SDS011;19986;48.190;16.366;2023-02-24T17:01:19;44.75;;;41.10;;
33644;SDS011;19986;48.190;16.366;2023-02-24T17:03:47;45.47;;;42.38;;
33644;SDS011;19986;48.190;16.366;2023-02-24T17:06:15;43.90;;;40.75;;
33644;SDS011;19986;48.190;16.366;2023-02-24T17:08:42;42.60;;;39.42;;
33644;SDS011;19986;48.190;16.366;2023-02-24T17:11:14;43.00;;;40.15;;
33644;SDS011;19986;48.190;16.366;2023-02-24T17:13:42;43.83;;;40.78;;
33644;SDS011;19986;48.190;16.366;2023-02-24T17:16:11;43.85;;;40.75;;
33644;SDS011;19986;48.190;16.366;2023-02-24T17:18:37;42.08;;;39.47;;
33644;SDS011;19986;48.190;16.366;2023-02-24T17:21:04;44.42;;;41.33;;
33644;SDS011;19986;48.190;16.366;2023-02-24T17:23:30;44.40;;;41.00;;
33644;SDS011;19986;48.190;16.366;2023-02-24T17:25:59;43.15;;;40.25;;
33644;SDS011;19986;48.190;16.366;2023-02-24T17:28:26;41.53;;;38.67;;
33644;SDS011;19986;48.190;16.366;2023-02-24T17:30:52;43.05;;;40.25;;
33644;SDS011;19986;48.190;16.366;2023-02-24T17:33:19;42.85;;;39.85;;
33644;SDS011;19986;48.190;16.366;2023-02-24T17:35:46;45.55;;;42.42;;
33644;SDS011;19986;48.190;16.366;2023-02-24T17:38:13;43.55;;;40.42;;
33644;SDS011;19986;48.190;16.366;2023-02-24T17:40:44;46.38;;;42.60;;